Time;durP1;ratioP1;P1;durP2;ratioP2;P2;SDS_P1;SDS_P2;PMS_P1;PMS_P2;Temp;Humidity;BMP_temperature;BMP_pressure;BME280_temperature;BME280_humidity;BME280_pressure;Samples;Min_cycle;Max_cycle;Signal;HPM_P1;HPM_P2
2021/12/20 08:44:54;;;;;;;72.80;20.75;;;;;;;1.52;100.00;99915.88;5100275;27;20385;-80
2021/12/20 08:47:21;;;;;;;66.40;21.15;;;;;;;1.64;100.00;99924.00;5072302;28;20037;-81
2021/12/20 08:49:49;;;;;;;72.47;21.83;;;;;;;1.79;100.00;99924.72;5069479;28;20045;-81
2021/12/20 08:52:16;;;;;;;72.10;23.10;;;;;;;1.89;100.00;99917.75;5058413;28;20456;-81
2021/12/20 08:54:43;;;;;;;64.18;22.42;;;;;;;2.05;100.00;99925.53;5066780;28;20049;-81
2021/12/20 08:57:12;;;;;;;68.80;22.05;;;;;;;2.00;100.00;99936.59;5059391;28;20041;-81
2021/12/20 08:59:40;;;;;;;60.90;21.02;;;;;;;1.96;100.00;99927.06;5063510;28;20044;-81
2021/12/20 09:02:09;;;;;;;55.88;20.17;;;;;;;2.09;100.00;99937.75;5060244;28;20045;-81
2021/12/20 09:04:36;;;;;;;53.92;18.52;;;;;;;2.16;100.00;99925.59;5066669;28;20094;-81
2021/12/20 09:07:05;;;;;;;53.42;19.38;;;;;;;2.25;100.00;99940.19;5076910;28;20049;-81
2021/12/20 09:09:37;;;;;;;64.55;22.25;;;;;;;2.30;100.00;99946.06;5069005;28;20049;-81
2021/12/20 09:12:06;;;;;;;53.47;20.60;;;;;;;2.35;100.00;99941.22;5061549;28;20079;-81
2021/12/20 09:14:34;;;;;;;51.85;20.15;;;;;;;2.27;100.00;99938.22;5085222;28;20048;-81
2021/12/20 09:17:01;;;;;;;48.47;19.00;;;;;;;2.37;100.00;99941.94;5080741;28;20048;-81
2021/12/20 09:19:29;;;;;;;73.20;31.40;;;;;;;2.52;100.00;99952.53;5068587;28;20048;-81
2021/12/20 09:21:56;;;;;;;49.00;21.55;;;;;;;2.63;100.00;99953.44;5064019;28;20107;-81
2021/12/20 09:24:25;;;;;;;40.53;17.63;;;;;;;2.61;100.00;99943.78;5083785;28;20045;-81
2021/12/20 09:26:52;;;;;;;42.33;18.93;;;;;;;2.60;100.00;99953.66;5084105;28;20045;-81
2021/12/20 09:29:27;;;;;;;38.33;17.25;;;;;;;2.73;100.00;99958.97;5078743;28;20826;-81
2021/12/20 09:31:58;;;;;;;38.00;16.35;;;;;;;2.74;100.00;99951.75;5064654;28;20052;-81
2021/12/20 09:34:25;;;;;;;40.70;16.80;;;;;;;2.73;100.00;99936.66;5068317;28;20056;-81
2021/12/20 09:36:55;;;;;;;35.22;17.02;;;;;;;2.85;100.00;99953.66;5068138;28;20044;-81
2021/12/20 09:39:22;;;;;;;43.30;17.90;;;;;;;2.83;100.00;99938.50;5063367;28;20103;-81
2021/12/20 09:42:03;;;;;;;41.88;16.33;;;;;;;2.82;100.00;99944.00;5061284;28;20071;-81
2021/12/20 09:44:33;;;;;;;39.85;17.25;;;;;;;2.89;100.00;99947.06;5049523;28;20053;-81
2021/12/20 09:47:02;;;;;;;41.60;19.80;;;;;;;3.20;100.00;99940.19;5056445;28;20044;-81
2021/12/20 09:49:30;;;;;;;37.35;15.98;;;;;;;3.26;100.00;99953.16;5065121;28;20064;-81
2021/12/20 09:52:00;;;;;;;38.67;18.90;;;;;;;3.22;100.00;99951.69;5059323;28;20040;-81
2021/12/20 09:54:30;;;;;;;40.65;16.63;;;;;;;3.15;100.00;99947.78;5063439;28;20049;-81
2021/12/20 09:56:59;;;;;;;39.65;17.35;;;;;;;3.07;100.00;99942.13;5055056;28;20048;-81
2021/12/20 09:59:29;;;;;;;40.05;17.75;;;;;;;3.14;100.00;99944.22;5044193;28;20045;-81
2021/12/20 10:01:59;;;;;;;37.17;15.32;;;;;;;3.19;100.00;99941.16;5046334;28;20413;-81
2021/12/20 10:04:26;;;;;;;;;;;;;;;3.22;100.00;99943.63;5054679;28;20275;-81
2021/12/20 10:06:54;;;;;;;33.08;14.95;;;;;;;3.22;100.00;99940.94;5054620;28;19928;-81
2021/12/20 10:09:27;;;;;;;36.03;16.38;;;;;;;3.44;100.00;99942.81;5045741;28;20060;-80
2021/12/20 10:12:15;;;;;;;32.78;16.10;;;;;;;3.46;100.00;99924.75;5043604;28;20160;-81
2021/12/20 10:14:56;;;;;;;34.10;14.75;;;;;;;3.64;100.00;99951.13;5053108;28;20114;-81
2021/12/20 10:17:25;;;;;;;36.63;14.27;;;;;;;3.57;100.00;99945.41;5054347;28;20064;-81
2021/12/20 10:19:55;;;;;;;36.88;15.27;;;;;;;3.67;100.00;99940.13;5054462;28;20056;-81
2021/12/20 10:22:23;;;;;;;;;;;;;;;3.72;100.00;99946.03;5052858;28;20037;-81
2021/12/20 10:24:59;;;;;;;26.98;11.80;;;;;;;3.63;100.00;99933.28;5049517;28;20256;-81
2021/12/20 10:27:36;;;;;;;21.20;9.10;;;;;;;3.74;100.00;99949.44;5043850;28;20095;-81
2021/12/20 10:30:23;;;;;;;21.08;8.18;;;;;;;3.81;100.00;99925.59;5053955;28;20482;-81
2021/12/20 10:32:50;;;;;;;18.75;7.47;;;;;;;3.85;100.00;99933.31;5053263;28;20526;-81
2021/12/20 10:35:40;;;;;;;19.30;7.32;;;;;;;3.84;100.00;99936.97;5050621;28;20057;-81
2021/12/20 10:38:23;;;;;;;17.23;5.97;;;;;;;3.88;100.00;99929.50;5053644;28;20095;-81
2021/12/20 10:40:54;;;;;;;15.32;5.82;;;;;;;3.87;100.00;99935.88;5053439;28;20496;-81
2021/12/20 10:43:23;;;;;;;12.18;5.60;;;;;;;3.86;100.00;99928.78;5041536;28;20036;-81
2021/12/20 10:45:52;;;;;;;12.93;4.93;;;;;;;3.93;100.00;99926.44;5053711;28;20396;-82
2021/12/20 10:48:19;;;;;;;15.98;6.88;;;;;;;3.92;100.00;99916.69;5051479;28;20099;-81
2021/12/20 10:50:52;;;;;;;17.67;6.97;;;;;;;3.98;100.00;99924.25;5043587;28;20448;-81
2021/12/20 10:53:22;;;;;;;20.92;6.55;;;;;;;3.98;100.00;99926.94;5052261;28;20487;-82
2021/12/20 10:55:50;;;;;;;;;;;;;;;4.00;100.00;99939.28;5053357;28;20449;-81
2021/12/20 10:58:30;;;;;;;13.45;6.43;;;;;;;3.96;100.00;99942.34;5053601;28;19920;-81
2021/12/20 11:01:15;;;;;;;14.27;5.25;;;;;;;3.83;99.16;99931.72;5037949;28;20115;-81
2021/12/20 11:03:43;;;;;;;14.95;6.65;;;;;;;3.69;99.81;99927.44;5050674;28;20485;-81
2021/12/20 11:09:06;;;;;;;13.88;6.00;;;;;;;3.62;100.00;99926.22;5044009;28;20045;-81
2021/12/20 11:11:39;;;;;;;12.52;6.18;;;;;;;3.62;100.00;99928.91;5052807;28;20126;-81
2021/12/20 11:14:11;;;;;;;14.80;5.65;;;;;;;3.59;100.00;99921.09;5052673;28;21106;-81
2021/12/20 11:16:42;;;;;;;21.75;6.68;;;;;;;3.63;100.00;99928.78;5053239;28;20075;-81
2021/12/20 11:19:22;;;;;;;15.50;6.53;;;;;;;3.64;100.00;99914.34;5052578;28;20048;-81
2021/12/20 11:22:01;;;;;;;15.77;6.22;;;;;;;3.75;100.00;99929.66;5052693;28;20102;-81
2021/12/20 11:24:31;;;;;;;17.23;6.40;;;;;;;3.58;100.00;99914.81;5044464;28;20045;-81
2021/12/20 11:27:00;;;;;;;17.02;5.97;;;;;;;3.71;99.77;99930.84;5053188;28;20057;-81
2021/12/20 11:29:39;;;;;;;16.17;6.05;;;;;;;3.69;98.83;99919.38;5052525;28;20110;-81
2021/12/20 11:32:07;;;;;;;16.05;5.65;;;;;;;3.71;99.87;99920.94;5051284;28;20377;-81
2021/12/20 11:34:38;;;;;;;16.80;6.18;;;;;;;3.72;100.00;99919.97;5051316;28;20053;-81
2021/12/20 11:37:07;;;;;;;14.98;6.03;;;;;;;3.77;99.62;99930.38;5052408;28;20476;-81
2021/12/20 11:39:34;;;;;;;10.75;5.28;;;;;;;3.68;99.44;99912.28;5052173;28;20045;-81
2021/12/20 11:42:07;;;;;;;11.13;6.05;;;;;;;3.54;100.00;99906.16;5040980;28;20052;-80
2021/12/20 11:44:40;;;;;;;14.38;5.90;;;;;;;3.68;100.00;99915.81;5046619;28;20044;-80
2021/12/20 11:47:19;;;;;;;14.23;6.22;;;;;;;3.73;100.00;99912.75;5052347;28;20601;-80
2021/12/20 11:49:55;;;;;;;14.95;6.25;;;;;;;3.68;100.00;99902.38;5048022;28;20049;-81
2021/12/20 11:52:25;;;;;;;17.83;6.10;;;;;;;3.99;100.00;99915.19;5050327;28;20110;-81
2021/12/20 11:54:55;;;;;;;14.05;5.70;;;;;;;4.12;99.22;99918.59;5051329;28;20122;-81
2021/12/20 11:57:43;;;;;;;17.83;5.10;;;;;;;4.34;96.40;99916.84;5051680;28;20037;-81
2021/12/20 12:00:27;;;;;;;10.85;4.45;;;;;;;4.36;96.48;99912.19;5051464;28;20052;-81
2021/12/20 12:02:57;;;;;;;14.13;6.30;;;;;;;4.41;95.83;99918.91;5044790;28;20048;-81
2021/12/20 12:05:51;;;;;;;15.63;5.32;;;;;;;4.67;94.83;99913.19;5052098;28;20049;-81
2021/12/20 12:08:35;;;;;;;12.65;5.45;;;;;;;4.56;94.61;99903.31;5047697;28;20099;-81
2021/12/20 12:11:32;;;;;;;11.80;6.45;;;;;;;4.17;95.28;99897.56;5043190;28;20369;-86
2021/12/20 12:14:35;;;;;;;10.90;4.38;;;;;;;4.02;94.81;99896.97;5031095;28;20082;-82
2021/12/20 12:17:10;;;;;;;16.73;5.00;;;;;;;3.93;96.87;99907.59;5048986;28;20249;-82
2021/12/20 12:19:47;;;;;;;11.60;4.85;;;;;;;3.95;96.88;99897.59;5049719;28;20050;-82
2021/12/20 12:22:41;;;;;;;12.07;4.95;;;;;;;4.00;95.38;99898.91;5050027;28;20077;-82
2021/12/20 12:25:13;;;;;;;10.82;4.55;;;;;;;4.02;96.45;99901.47;5049131;28;20057;-82
2021/12/20 12:27:43;;;;;;;10.88;5.57;;;;;;;4.13;94.88;99906.00;5052043;28;20500;-82
2021/12/20 12:30:38;;;;;;;13.68;4.72;;;;;;;4.16;91.66;99914.69;5051406;28;20051;-81
2021/12/20 12:33:31;;;;;;;12.85;4.93;;;;;;;3.88;94.27;99895.41;5032101;28;20519;-81
2021/12/20 12:36:07;;;;;;;9.07;4.13;;;;;;;3.72;93.71;99890.41;5042600;28;20420;-82
2021/12/20 12:38:36;;;;;;;13.05;4.85;;;;;;;3.83;92.10;99891.38;5047283;28;20046;-82
2021/12/20 12:41:19;;;;;;;11.32;4.15;;;;;;;3.89;92.66;99907.00;5040451;28;20211;-82
2021/12/20 12:43:53;;;;;;;11.80;4.28;;;;;;;3.98;92.71;99902.72;5051256;28;20053;-82
2021/12/20 12:46:47;;;;;;;10.82;3.85;;;;;;;4.19;91.52;99906.34;5051462;28;20053;-82
2021/12/20 12:49:42;;;;;;;11.43;4.28;;;;;;;4.23;87.50;99893.47;5051654;28;20122;-82
2021/12/20 12:52:29;;;;;;;8.10;3.80;;;;;;;4.35;86.30;99907.78;5051520;28;20057;-82
2021/12/20 12:54:58;;;;;;;9.60;3.38;;;;;;;4.40;85.55;99900.19;5048857;28;20056;-82
2021/12/20 12:57:37;;;;;;;9.50;3.63;;;;;;;4.42;82.01;99898.22;5050727;28;20059;-82
2021/12/20 13:00:29;;;;;;;13.73;3.47;;;;;;;4.44;84.38;99898.94;5050804;28;20135;-82
2021/12/20 13:03:11;;;;;;;14.85;3.67;;;;;;;4.42;85.83;99904.44;5048403;28;20044;-82
2021/12/20 13:05:41;;;;;;;7.78;3.95;;;;;;;4.40;84.64;99882.19;5051465;28;20045;-81
2021/12/20 13:08:11;;;;;;;11.07;3.25;;;;;;;4.50;84.48;99894.88;5044689;28;20053;-82
2021/12/20 13:10:40;;;;;;;;;;;;;;;4.52;80.34;99893.78;5050585;28;20416;-81
2021/12/20 13:13:16;;;;;;;5.72;2.42;;;;;;;4.31;79.89;99871.34;5042466;28;19921;-81
2021/12/20 13:15:47;;;;;;;10.50;2.92;;;;;;;4.36;79.06;99875.34;5058722;28;20048;-81
2021/12/20 13:18:20;;;;;;;6.75;2.60;;;;;;;4.34;80.73;99881.84;5049984;28;20484;-82
2021/12/20 13:20:58;;;;;;;9.38;2.53;;;;;;;4.23;82.36;99878.22;5040599;28;20049;-81
2021/12/20 13:23:27;;;;;;;9.50;2.50;;;;;;;4.25;81.63;99888.84;5048832;28;20452;-81
2021/12/20 13:25:55;;;;;;;10.60;3.35;;;;;;;4.20;81.25;99883.84;5050812;28;20049;-82
2021/12/20 13:28:24;;;;;;;9.05;3.20;;;;;;;3.97;83.90;99871.41;5050146;28;20059;-81
2021/12/20 13:30:54;;;;;;;7.57;2.75;;;;;;;4.05;83.13;99875.19;5052382;28;20139;-81
2021/12/20 13:33:23;;;;;;;6.63;3.38;;;;;;;4.12;82.42;99889.00;5063854;28;20052;-81
2021/12/20 13:35:52;;;;;;;13.20;2.47;;;;;;;4.07;85.12;99894.75;5052890;28;20072;-81
2021/12/20 13:38:29;;;;;;;9.77;2.90;;;;;;;3.97;86.77;99899.16;5054981;28;20040;-81
2021/12/20 13:40:59;;;;;;;10.23;2.92;;;;;;;3.90;85.85;99877.28;5053529;28;20049;-81
2021/12/20 13:43:34;;;;;;;7.70;3.10;;;;;;;4.05;84.09;99882.38;5054803;28;20044;-82
2021/12/20 13:46:24;;;;;;;10.65;2.83;;;;;;;3.95;84.95;99881.47;5051621;28;20059;-81
2021/12/20 13:49:02;;;;;;;6.97;2.50;;;;;;;4.06;86.13;99893.06;5056752;28;20128;-81
2021/12/20 13:51:40;;;;;;;9.93;2.65;;;;;;;4.04;84.52;99899.53;5056061;28;20454;-82
2021/12/20 13:54:25;;;;;;;6.15;2.60;;;;;;;4.07;83.21;99894.75;5069057;28;20052;-82
2021/12/20 13:57:01;;;;;;;12.32;2.60;;;;;;;4.06;81.72;99873.34;5048483;28;20046;-82
2021/12/20 13:59:30;;;;;;;5.90;2.20;;;;;;;4.02;80.03;99877.25;5054393;28;20106;-81
2021/12/20 14:01:59;;;;;;;7.68;2.20;;;;;;;3.86;81.56;99881.22;5051778;28;20045;-81
2021/12/20 14:04:35;;;;;;;7.43;2.28;;;;;;;3.93;83.68;99896.84;5040939;28;20052;-81
2021/12/20 14:07:04;;;;;;;8.13;2.13;;;;;;;3.84;84.26;99898.44;5052664;28;20139;-82
2021/12/20 14:09:39;;;;;;;7.25;2.38;;;;;;;3.68;86.28;99893.47;5050386;28;20049;-82
2021/12/20 14:12:08;;;;;;;5.43;2.25;;;;;;;3.49;86.84;99883.31;5049886;28;20149;-81
2021/12/20 14:14:35;;;;;;;8.27;2.58;;;;;;;3.56;87.74;99902.50;5057035;28;20514;-82
2021/12/20 14:17:05;;;;;;;9.40;2.53;;;;;;;3.38;89.01;99896.75;5053233;28;20052;-82
2021/12/20 14:20:00;;;;;;;9.70;2.30;;;;;;;3.30;89.09;99891.97;5042747;28;20136;-82
2021/12/20 14:22:43;;;;;;;8.35;2.55;;;;;;;3.27;87.21;99894.91;5043952;28;20044;-82
2021/12/20 14:25:10;;;;;;;7.65;2.53;;;;;;;3.25;85.91;99875.34;5057065;28;20048;-81
2021/12/20 14:27:37;;;;;;;4.80;1.73;;;;;;;3.34;87.10;99899.69;5052435;28;20056;-81
2021/12/20 14:30:22;;;;;;;5.22;2.78;;;;;;;3.15;87.52;99888.66;5058055;28;20059;-82
2021/12/20 14:32:51;;;;;;;7.00;2.03;;;;;;;3.04;87.21;99868.00;5050538;28;20127;-82
2021/12/20 14:35:32;;;;;;;8.30;2.72;;;;;;;3.13;85.72;99878.03;5050765;28;20461;-81
2021/12/20 14:38:24;;;;;;;9.30;2.47;;;;;;;3.03;85.79;99879.72;5049848;28;20060;-81
2021/12/20 14:40:51;;;;;;;6.78;1.70;;;;;;;3.23;83.72;99888.91;5058672;28;20427;-81
2021/12/20 14:43:19;;;;;;;6.93;2.38;;;;;;;3.03;84.14;99890.47;5052589;28;20406;-81
2021/12/20 14:46:08;;;;;;;12.10;2.33;;;;;;;2.88;85.45;99876.38;5060780;28;20053;-81
2021/12/20 14:48:43;;;;;;;10.23;2.45;;;;;;;2.89;85.99;99891.53;5053947;28;20433;-82
2021/12/20 14:51:20;;;;;;;11.30;1.88;;;;;;;2.95;84.58;99903.63;5036953;28;20045;-81
2021/12/20 14:54:03;;;;;;;4.38;1.90;;;;;;;2.70;86.65;99878.66;5052185;28;20060;-81
2021/12/20 14:56:31;;;;;;;4.30;2.22;;;;;;;2.70;81.63;99901.97;5043016;28;20060;-81
2021/12/20 14:59:04;;;;;;;5.85;1.83;;;;;;;2.74;82.76;99904.31;5057892;28;20482;-81
2021/12/20 15:01:31;;;;;;;3.63;2.03;;;;;;;2.71;82.53;99901.84;5052012;28;20067;-81
2021/12/20 15:04:12;;;;;;;3.90;2.22;;;;;;;2.67;82.73;99888.78;5061564;28;20060;-81
2021/12/20 15:06:41;;;;;;;4.53;1.85;;;;;;;2.55;83.22;99888.72;5050822;28;20068;-82
2021/12/20 15:09:12;;;;;;;7.80;2.20;;;;;;;2.50;84.13;99881.97;5060002;28;20385;-81
2021/12/20 15:11:41;;;;;;;7.20;2.35;;;;;;;2.48;84.71;99890.16;5051687;28;20059;-81
2021/12/20 15:14:11;;;;;;;4.72;2.05;;;;;;;2.46;86.36;99897.47;5047939;28;20049;-81
2021/12/20 15:16:38;;;;;;;;;;;;;;;2.37;87.24;99906.22;5043319;28;20048;-81
2021/12/20 15:19:05;;;;;;;7.00;2.22;;;;;;;2.25;88.98;99881.16;5044427;28;20326;-81
2021/12/20 15:21:36;;;;;;;13.27;3.33;;;;;;;2.16;89.90;99888.03;5055217;28;20409;-81
2021/12/20 15:24:05;;;;;;;6.07;2.33;;;;;;;2.04;92.47;99894.31;5051624;28;20530;-81
2021/12/20 15:26:41;;;;;;;6.53;1.90;;;;;;;1.64;93.13;99890.03;5057793;28;20045;-81
2021/12/20 15:29:10;;;;;;;8.45;2.22;;;;;;;1.53;95.48;99906.84;5052195;28;20052;-81
2021/12/20 15:31:38;;;;;;;6.43;1.80;;;;;;;1.34;95.52;99901.97;5051678;28;20053;-81
2021/12/20 15:34:12;;;;;;;10.25;2.05;;;;;;;1.24;95.71;99904.41;5052376;28;20098;-81
2021/12/20 15:36:39;;;;;;;8.30;2.05;;;;;;;1.16;96.71;99893.38;5057622;28;20542;-81
2021/12/20 15:39:08;;;;;;;7.07;1.83;;;;;;;1.08;96.75;99908.28;5051293;28;20095;-81
2021/12/20 15:41:42;;;;;;;7.35;1.90;;;;;;;1.00;97.60;99912.31;5055178;28;20072;-81
2021/12/20 15:44:12;;;;;;;4.43;2.05;;;;;;;0.86;98.69;99909.75;5052750;28;20049;-81
2021/12/20 15:46:41;;;;;;;8.90;2.33;;;;;;;0.71;99.66;99895.59;5064829;28;20045;-81
2021/12/20 15:49:16;;;;;;;6.95;1.77;;;;;;;0.52;100.00;99895.97;5045702;28;20037;-81
2021/12/20 15:51:44;;;;;;;9.95;2.00;;;;;;;0.51;100.00;99903.13;5040133;28;20654;-81
2021/12/20 15:54:14;;;;;;;12.30;2.30;;;;;;;0.47;100.00;99911.47;5042435;28;20037;-81
2021/12/20 15:56:43;;;;;;;4.93;1.77;;;;;;;0.43;100.00;99917.97;5052446;28;20049;-81
2021/12/20 15:59:10;;;;;;;11.00;2.05;;;;;;;0.31;100.00;99898.25;5049034;28;20049;-81
2021/12/20 16:01:40;;;;;;;6.93;2.00;;;;;;;0.36;100.00;99925.53;5044094;28;20055;-81
2021/12/20 16:04:06;;;;;;;7.00;1.75;;;;;;;0.24;100.00;99910.31;5047105;28;20094;-81
2021/12/20 16:06:33;;;;;;;4.03;2.38;;;;;;;0.27;100.00;99928.81;5050867;28;20049;-81
2021/12/20 16:09:00;;;;;;;8.82;2.17;;;;;;;0.15;100.00;99917.09;5048948;28;20048;-81
2021/12/20 16:11:27;;;;;;;4.15;1.60;;;;;;;0.19;100.00;99897.22;5043160;28;20044;-81
2021/12/20 16:13:55;;;;;;;7.00;2.33;;;;;;;0.26;100.00;99919.09;5051072;28;20049;-81
2021/12/20 16:16:22;;;;;;;10.35;2.17;;;;;;;0.26;100.00;99925.31;5047228;28;20037;-81
2021/12/20 16:18:49;;;;;;;8.88;2.42;;;;;;;0.26;100.00;99927.97;5045141;28;20434;-81
2021/12/20 16:21:18;;;;;;;5.55;2.67;;;;;;;0.15;100.00;99920.66;5058967;28;20130;-81
2021/12/20 16:23:48;;;;;;;5.18;1.92;;;;;;;-0.10;100.00;99908.00;5058341;28;20473;-81
2021/12/20 16:26:18;;;;;;;6.43;2.10;;;;;;;-0.12;100.00;99922.41;5050315;28;20049;-81
2021/12/20 16:28:45;;;;;;;8.18;1.80;;;;;;;-0.17;100.00;99908.50;5053686;28;20049;-81
2021/12/20 16:31:13;;;;;;;9.30;2.00;;;;;;;-0.12;100.00;99927.75;5047229;28;20049;-81
2021/12/20 16:33:40;;;;;;;11.55;2.47;;;;;;;-0.21;100.00;99927.41;5059368;28;20488;-81
2021/12/20 16:36:09;;;;;;;5.93;2.05;;;;;;;-0.26;100.00;99926.81;5047830;28;20435;-81
2021/12/20 16:38:36;;;;;;;4.85;2.05;;;;;;;-0.29;100.00;99924.34;5060621;28;20679;-81
2021/12/20 16:41:04;;;;;;;6.03;2.60;;;;;;;-0.42;100.00;99916.28;5047490;28;20065;-81
2021/12/20 16:43:36;;;;;;;7.90;2.42;;;;;;;-0.50;100.00;99921.22;5052279;28;20135;-81
2021/12/20 16:46:09;;;;;;;5.88;2.72;;;;;;;-0.62;100.00;99917.50;5051881;28;20045;-81
2021/12/20 16:48:37;;;;;;;6.57;2.10;;;;;;;-0.65;100.00;99914.16;5045959;28;20055;-80
2021/12/20 16:51:06;;;;;;;8.57;2.55;;;;;;;-0.75;100.00;99904.06;5052584;28;20061;-83
